Prince William, Virginia
Current Conditions -  °F | °C
As of 3:58 PM on Tuesday 27 Jan 2015 (Local Time) from KDAA Reporting Station
Overcast Overcast  
Wind Chill: 22°   Ceiling: 2800
Heat Index: 33°   Visibility: 10mi
Dew Point: 23°   Wind: 17mph
Humidity: 65%   Direction: 320°NW
Pressure: 29.84"   Gusts: 24mph
Location:  38.6839°N, 77.3246°W
Report Text: KDAA 272058Z AUTO 32015G21KT 10SM OVC028 01/M05 A2984 RMK AO2 SLP109 T00071052 53009
Loading
Personal Weather Stations






























Interactive Weather Map New forecast layout! Learn more

10-Day Weather Forecast

Advertisements
Track Severe Weather on mobile